Villas, New Jersey
Current Conditions -  °F | °C
As of 12:15 PM on Friday 28 Nov 2014 (Local Time) from KWWD Reporting Station
Few Clouds Few Clouds  
Wind Chill: 32°   Ceiling: Unl
Heat Index: 39°   Visibility: 10mi
Dew Point: 19°   Wind: 10mph
Humidity: 45%   Direction: 300°WNW
Pressure: 30.19"   Gusts: 24mph
Location:  39.03°N, 74.94°W
Report Text: KWWD 281715Z AUTO 30009G21KT 280V360 10SM FEW042 04/M07 A3019 RMK AO1
Loading
Personal Weather Stations






























Interactive Weather Map New forecast layout! Learn more

10-Day Weather Forecast

Advertisements
Track Severe Weather on mobile